createdAt,value
2019-05-02T00:00:31.142Z,30.55
2019-05-02T00:03:04.414Z,34.48
2019-05-02T00:05:32.340Z,34.80
2019-05-02T00:08:02.679Z,32.95
2019-05-02T00:10:32.221Z,45.85
2019-05-02T00:13:01.846Z,38.58
2019-05-02T00:15:33.164Z,50.10
2019-05-02T00:18:09.818Z,49.85
2019-05-02T00:20:39.279Z,38.28
2019-05-02T00:23:10.458Z,42.85
2019-05-02T00:25:40.281Z,45.52
2019-05-02T00:28:12.490Z,49.77
2019-05-02T00:30:41.227Z,38.58
2019-05-02T00:33:10.801Z,41.00
2019-05-02T00:35:40.974Z,39.95
2019-05-02T00:38:11.387Z,43.20
2019-05-02T00:40:40.918Z,45.83
2019-05-02T00:43:10.458Z,39.88
2019-05-02T00:45:39.992Z,38.15
2019-05-02T00:48:11.087Z,41.37
2019-05-02T00:50:45.441Z,47.43
2019-05-02T00:53:13.481Z,45.28
2019-05-02T00:55:43.060Z,38.23
2019-05-02T00:58:12.590Z,48.90
2019-05-02T01:00:43.990Z,44.38
2019-05-02T01:03:16.143Z,37.45
2019-05-02T01:05:44.603Z,43.38
2019-05-02T01:08:14.087Z,36.85
2019-05-02T01:10:44.104Z,40.08
2019-05-02T01:13:14.810Z,34.27
2019-05-02T01:16:00.863Z,39.05
2019-05-02T01:18:31.728Z,37.00
2019-05-02T01:21:02.860Z,37.63
2019-05-02T01:23:32.179Z,32.73
2019-05-02T01:26:02.607Z,40.43
2019-05-02T01:28:49.322Z,42.62
2019-05-02T01:31:36.623Z,39.25
2019-05-02T01:34:13.063Z,36.45
2019-05-02T01:36:59.870Z,43.02
2019-05-02T01:39:29.328Z,43.45
2019-05-02T01:42:04.025Z,44.15
2019-05-02T01:44:36.150Z,43.52
2019-05-02T01:47:02.369Z,40.17
2019-05-02T01:49:32.758Z,35.73
2019-05-02T01:52:07.462Z,55.05
2019-05-02T01:54:34.060Z,45.78
2019-05-02T01:57:03.935Z,50.95
2019-05-02T01:59:35.166Z,49.83
2019-05-02T02:02:04.983Z,34.50
2019-05-02T02:04:35.050Z,44.40
2019-05-02T02:07:04.848Z,47.05
2019-05-02T02:09:38.920Z,46.95
2019-05-02T02:12:09.923Z,37.35
2019-05-02T02:14:38.324Z,48.00
2019-05-02T02:17:10.244Z,45.98
2019-05-02T02:19:40.681Z,53.65
2019-05-02T02:22:14.745Z,45.63
2019-05-02T02:27:14.486Z,36.38
2019-05-02T02:29:48.376Z,38.42
2019-05-02T02:32:26.602Z,47.67
2019-05-02T02:34:55.749Z,48.92
2019-05-02T02:37:25.359Z,48.70
2019-05-02T02:39:56.490Z,55.20
2019-05-02T02:42:31.714Z,48.15
2019-05-02T02:45:00.790Z,51.45
2019-05-02T02:47:29.899Z,38.95
2019-05-02T02:50:02.725Z,42.25
2019-05-02T02:52:37.786Z,40.10
2019-05-02T02:55:06.248Z,53.33
2019-05-02T02:57:35.776Z,51.58
2019-05-02T03:00:10.756Z,59.58
2019-05-02T03:02:47.718Z,62.62
2019-05-02T03:05:10.608Z,49.83
2019-05-02T03:07:44.128Z,44.75
2019-05-02T03:10:16.326Z,45.33
2019-05-02T03:12:54.907Z,60.78
2019-05-02T03:15:29.577Z,47.20
2019-05-02T03:17:59.940Z,52.98
2019-05-02T03:20:39.890Z,56.35
2019-05-02T03:23:01.242Z,49.93
2019-05-02T03:25:49.291Z,68.62
2019-05-02T03:28:01.731Z,48.75
2019-05-02T03:30:37.095Z,54.18
2019-05-02T03:33:09.536Z,48.17
2019-05-02T03:35:42.928Z,54.93
2019-05-02T03:38:04.663Z,58.13
2019-05-02T03:40:39.176Z,47.48
2019-05-02T03:43:06.899Z,51.10
2019-05-02T03:45:40.788Z,53.80
2019-05-02T03:48:07.506Z,52.73
2019-05-02T03:50:52.153Z,54.77
2019-05-02T03:53:25.455Z,49.45
2019-05-02T03:55:53.612Z,60.78
2019-05-02T03:58:23.335Z,60.15
2019-05-02T04:01:00.348Z,45.80
2019-05-02T04:03:25.312Z,59.70
2019-05-02T04:05:55.221Z,53.65
2019-05-02T04:08:24.929Z,60.28
2019-05-02T04:11:03.048Z,60.80
2019-05-02T04:13:36.198Z,45.48
2019-05-02T04:16:14.617Z,54.03
2019-05-02T04:18:34.819Z,48.58
2019-05-02T04:21:04.269Z,45.52
2019-05-02T04:23:33.890Z,55.88
2019-05-02T04:26:06.690Z,51.08
2019-05-02T04:28:35.171Z,52.75
2019-05-02T04:31:16.461Z,55.35
2019-05-02T04:33:45.921Z,54.10
2019-05-02T04:36:17.839Z,58.35
2019-05-02T04:38:48.765Z,49.67
2019-05-02T04:41:28.837Z,52.90
2019-05-02T04:44:01.179Z,65.75
2019-05-02T04:46:31.081Z,55.00
2019-05-02T04:49:02.001Z,53.00
2019-05-02T04:51:37.972Z,51.98
2019-05-02T04:54:09.417Z,63.85
2019-05-02T04:56:49.751Z,70.78
2019-05-02T04:59:22.783Z,61.98
2019-05-02T05:01:58.564Z,57.90
2019-05-02T05:04:33.066Z,71.67
2019-05-02T05:07:09.188Z,63.63
2019-05-02T05:09:50.128Z,55.12
2019-05-02T05:12:19.432Z,54.10
2019-05-02T05:14:52.117Z,59.85
2019-05-02T05:17:25.015Z,61.85
2019-05-02T05:20:10.696Z,52.45
2019-05-02T05:22:44.155Z,53.68
2019-05-02T05:25:33.282Z,39.98
2019-05-02T05:28:15.350Z,57.58
2019-05-02T05:30:49.194Z,52.33
2019-05-02T05:33:22.674Z,58.45
2019-05-02T05:35:53.819Z,48.90
2019-05-02T05:38:28.564Z,55.20
2019-05-02T05:40:54.927Z,46.10
2019-05-02T05:43:24.486Z,64.12
2019-05-02T05:46:06.081Z,59.77
2019-05-02T05:48:27.384Z,58.02
2019-05-02T05:51:20.418Z,50.35
2019-05-02T05:53:47.852Z,49.25
2019-05-02T05:56:18.436Z,49.53
2019-05-02T05:58:52.440Z,47.83
2019-05-02T06:01:20.385Z,59.45
2019-05-02T06:03:50.105Z,74.53
2019-05-02T06:06:22.808Z,55.63
2019-05-02T06:08:54.205Z,58.38
2019-05-02T06:11:22.971Z,59.60
2019-05-02T06:13:52.408Z,47.60
2019-05-02T06:16:21.862Z,63.75
2019-05-02T06:18:51.345Z,59.03
2019-05-02T06:21:20.785Z,62.58
2019-05-02T06:23:50.390Z,57.80
2019-05-02T06:26:20.293Z,57.50
2019-05-02T06:28:51.904Z,52.25
2019-05-02T06:31:22.402Z,41.25
2019-05-02T06:33:52.480Z,52.78
2019-05-02T06:36:21.942Z,55.52
2019-05-02T06:38:56.737Z,54.23
2019-05-02T06:41:26.335Z,50.30
2019-05-02T06:43:55.837Z,67.45
2019-05-02T06:46:27.943Z,47.50
2019-05-02T06:48:57.414Z,60.65
2019-05-02T06:51:26.927Z,53.65
2019-05-02T06:53:57.560Z,54.18
2019-05-02T06:56:27.031Z,53.63
2019-05-02T06:58:56.485Z,69.75
2019-05-02T07:01:25.926Z,61.18
2019-05-02T07:03:55.476Z,57.08
2019-05-02T07:06:25.279Z,49.33
2019-05-02T07:08:54.993Z,54.98
2019-05-02T07:11:25.110Z,73.47
2019-05-02T07:13:54.587Z,64.67
2019-05-02T07:16:37.584Z,60.85
2019-05-02T07:19:29.392Z,60.88
2019-05-02T07:22:03.794Z,61.50
2019-05-02T07:24:32.654Z,70.20
2019-05-02T07:27:16.066Z,48.23
2019-05-02T07:29:45.505Z,51.07
2019-05-02T07:32:19.452Z,53.00
2019-05-02T07:34:48.170Z,52.70
2019-05-02T07:37:17.226Z,58.73
2019-05-02T07:39:46.681Z,43.48
2019-05-02T07:42:16.277Z,52.60
2019-05-02T07:44:45.766Z,62.98
2019-05-02T07:47:15.267Z,50.50
2019-05-02T07:49:44.867Z,60.58
2019-05-02T07:52:14.310Z,49.85
2019-05-02T07:54:43.770Z,51.33
2019-05-02T07:57:14.415Z,62.58
2019-05-02T07:59:43.829Z,50.43
2019-05-02T08:02:20.206Z,62.70
2019-05-02T08:04:47.650Z,61.45
2019-05-02T08:07:21.095Z,51.83
2019-05-02T08:09:48.312Z,56.85
2019-05-02T08:12:17.794Z,50.92
2019-05-02T08:14:47.288Z,52.43
2019-05-02T08:17:19.105Z,55.45
2019-05-02T08:19:47.962Z,50.65
2019-05-02T08:22:17.458Z,59.90
2019-05-02T08:24:46.925Z,53.80
2019-05-02T08:27:23.861Z,55.58
2019-05-02T08:29:53.699Z,48.73
2019-05-02T08:32:23.162Z,45.88
2019-05-02T08:34:53.513Z,59.85
2019-05-02T08:37:23.090Z,61.53
2019-05-02T08:39:52.554Z,49.95
2019-05-02T08:42:22.011Z,61.20
2019-05-02T08:44:55.957Z,52.50
2019-05-02T08:47:23.768Z,54.35
2019-05-02T08:49:54.772Z,58.60
2019-05-02T08:52:24.801Z,55.92
2019-05-02T08:54:54.263Z,59.53
2019-05-02T08:57:23.970Z,51.88
2019-05-02T08:59:55.422Z,48.83
2019-05-02T09:02:25.976Z,47.38
2019-05-02T09:04:58.740Z,45.23
2019-05-02T09:07:26.731Z,56.60
2019-05-02T09:10:00.260Z,53.58
2019-05-02T09:12:27.315Z,53.78
2019-05-02T09:15:02.614Z,56.10
2019-05-02T09:17:36.011Z,57.03
2019-05-02T09:20:10.281Z,54.77
2019-05-02T09:22:34.902Z,58.58
2019-05-02T09:25:06.358Z,58.80
2019-05-02T09:27:35.930Z,50.40
2019-05-02T09:30:08.577Z,59.27
2019-05-02T09:32:38.086Z,54.18
2019-05-02T09:35:07.785Z,63.55
2019-05-02T09:37:37.283Z,60.73
2019-05-02T09:40:12.498Z,69.60
2019-05-02T09:42:39.355Z,53.65
2019-05-02T09:45:12.257Z,60.85
2019-05-02T09:47:55.869Z,58.43
2019-05-02T09:50:14.784Z,53.42
2019-05-02T09:52:44.508Z,67.87
2019-05-02T09:55:16.491Z,72.58
2019-05-02T09:57:46.074Z,67.92
2019-05-02T10:00:41.840Z,76.17
2019-05-02T10:03:27.993Z,55.35
2019-05-02T10:05:58.820Z,70.25
2019-05-02T10:08:38.263Z,56.10
2019-05-02T10:11:07.163Z,72.37
2019-05-02T10:13:36.709Z,56.80
2019-05-02T10:16:06.278Z,53.70
2019-05-02T10:18:35.740Z,71.02
2019-05-02T10:21:07.965Z,64.50
2019-05-02T10:23:36.419Z,68.05
2019-05-02T10:26:05.866Z,61.70
2019-05-02T10:28:35.351Z,54.80
2019-05-02T10:31:05.225Z,68.45
2019-05-02T10:33:37.580Z,65.50
2019-05-02T10:36:06.102Z,62.05
2019-05-02T10:38:35.565Z,63.70
2019-05-02T10:41:07.927Z,55.45
2019-05-02T10:43:46.977Z,62.27
2019-05-02T10:46:16.161Z,83.92
2019-05-02T10:48:47.223Z,58.42
2019-05-02T10:51:35.333Z,59.60
2019-05-02T10:54:06.062Z,79.05
2019-05-02T10:56:38.711Z,67.08
2019-05-02T10:59:08.247Z,75.17
2019-05-02T11:01:45.416Z,68.75
2019-05-02T11:04:16.162Z,74.37
2019-05-02T11:06:46.315Z,71.35
2019-05-02T11:09:26.271Z,70.72
2019-05-02T11:11:54.747Z,58.35
2019-05-02T11:14:25.860Z,52.03
2019-05-02T11:17:03.042Z,64.65
2019-05-02T11:19:41.988Z,54.55
2019-05-02T11:22:12.626Z,48.65
2019-05-02T11:24:42.179Z,71.25
2019-05-02T11:27:12.795Z,43.55
2019-05-02T11:29:42.603Z,45.70
2019-05-02T11:32:17.142Z,47.43
2019-05-02T11:34:46.666Z,48.30
2019-05-02T11:37:16.126Z,55.67
2019-05-02T11:39:51.874Z,51.15
2019-05-02T11:42:17.714Z,52.10
2019-05-02T11:44:47.875Z,56.40
2019-05-02T11:47:21.927Z,46.35
2019-05-02T11:49:53.964Z,43.25
2019-05-02T11:52:19.513Z,50.00
2019-05-02T11:54:55.885Z,51.75
2019-05-02T11:57:28.659Z,46.28
2019-05-02T11:59:59.443Z,48.52
2019-05-02T12:02:38.630Z,34.98
2019-05-02T12:05:10.073Z,50.15
2019-05-02T12:07:41.692Z,40.03
2019-05-02T12:10:12.528Z,37.05
2019-05-02T12:12:42.994Z,32.53
2019-05-02T12:15:12.826Z,36.42
2019-05-02T12:17:42.355Z,50.05
2019-05-02T12:20:12.127Z,39.08
2019-05-02T12:22:42.032Z,31.25
2019-05-02T12:25:12.684Z,35.52
2019-05-02T12:27:43.448Z,23.90
2019-05-02T12:30:13.758Z,22.07
2019-05-02T12:32:43.664Z,25.45
2019-05-02T12:35:13.341Z,22.20
2019-05-02T12:37:47.042Z,18.55
2019-05-02T12:40:15.541Z,18.27
2019-05-02T12:42:45.083Z,19.05
2019-05-02T12:45:15.767Z,21.20
2019-05-02T12:47:45.245Z,17.02
2019-05-02T12:50:15.999Z,14.95
2019-05-02T12:52:45.528Z,18.32
2019-05-02T12:55:16.684Z,13.70
2019-05-02T12:57:46.148Z,13.62
2019-05-02T13:00:18.479Z,13.95
2019-05-02T13:03:04.124Z,13.98
2019-05-02T13:05:38.354Z,15.72
2019-05-02T13:08:07.789Z,13.60
2019-05-02T13:11:02.134Z,15.58
2019-05-02T13:13:28.259Z,9.88
2019-05-02T13:16:00.600Z,12.53
2019-05-02T13:18:35.635Z,11.95
2019-05-02T13:21:02.240Z,12.15
2019-05-02T13:23:48.723Z,10.08
2019-05-02T13:26:21.834Z,9.63
2019-05-02T13:28:49.453Z,10.13
2019-05-02T13:31:29.683Z,20.72
2019-05-02T13:34:11.912Z,10.30
2019-05-02T13:36:49.001Z,12.18
2019-05-02T13:39:37.008Z,15.30
2019-05-02T13:42:06.730Z,10.72
2019-05-02T13:44:39.367Z,20.52
2019-05-02T13:47:12.174Z,14.63
2019-05-02T13:49:53.269Z,12.25
2019-05-02T13:52:14.056Z,11.45
2019-05-02T13:54:43.604Z,13.50
2019-05-02T13:57:16.046Z,16.35
2019-05-02T13:59:45.514Z,13.48
2019-05-02T14:02:42.678Z,13.83
2019-05-02T14:05:15.954Z,20.37
2019-05-02T14:07:48.356Z,21.70
2019-05-02T14:10:33.604Z,14.28
2019-05-02T14:13:03.986Z,22.58
2019-05-02T14:15:37.611Z,13.62
2019-05-02T14:18:09.054Z,11.45
2019-05-02T14:20:38.554Z,19.48
2019-05-02T14:23:08.145Z,16.17
2019-05-02T14:25:37.607Z,13.50
2019-05-02T14:28:07.109Z,20.15
2019-05-02T14:30:41.964Z,19.95
2019-05-02T14:33:13.349Z,21.73
2019-05-02T14:35:42.906Z,24.82
2019-05-02T14:38:13.479Z,23.52
2019-05-02T14:40:52.021Z,17.05
2019-05-02T14:43:44.580Z,14.13
2019-05-02T14:46:12.670Z,26.97
2019-05-02T14:48:45.519Z,20.65
2019-05-02T14:51:16.788Z,23.18
2019-05-02T14:53:47.611Z,29.52
2019-05-02T14:56:32.684Z,28.07
2019-05-02T14:59:02.672Z,25.10
2019-05-02T15:01:32.490Z,27.58
2019-05-02T15:04:16.119Z,31.68
2019-05-02T15:06:49.856Z,36.65
2019-05-02T15:09:22.649Z,37.85
2019-05-02T15:11:59.250Z,28.55
2019-05-02T15:14:30.250Z,39.00
2019-05-02T15:16:59.854Z,32.78
2019-05-02T15:19:29.483Z,26.75
2019-05-02T15:21:59.030Z,32.70
2019-05-02T15:24:33.424Z,31.27
2019-05-02T15:27:05.453Z,29.92
2019-05-02T15:29:32.264Z,29.52
2019-05-02T15:32:07.202Z,37.48
2019-05-02T15:34:46.325Z,38.40
2019-05-02T15:37:12.401Z,27.17
2019-05-02T15:42:13.394Z,26.65
2019-05-02T15:44:42.858Z,34.58
2019-05-02T15:47:12.674Z,33.65
2019-05-02T15:49:46.560Z,29.77
2019-05-02T15:54:55.513Z,21.45
2019-05-02T15:57:22.086Z,19.90
2019-05-02T15:59:51.644Z,26.77
2019-05-02T16:02:26.373Z,32.63
2019-05-02T16:04:57.092Z,31.35
2019-05-02T16:07:27.426Z,22.25
2019-05-02T16:10:01.153Z,24.43
2019-05-02T16:12:31.983Z,28.70
2019-05-02T16:15:02.709Z,25.65
2019-05-02T16:17:34.343Z,26.00
2019-05-02T16:20:13.200Z,21.80
2019-05-02T16:22:46.323Z,22.80
2019-05-02T16:25:13.793Z,22.22
2019-05-02T16:27:44.980Z,21.07
2019-05-02T16:30:22.374Z,22.25
2019-05-02T16:32:53.849Z,22.65
2019-05-02T16:35:25.098Z,24.12
2019-05-02T16:37:56.000Z,20.35
2019-05-02T16:40:29.774Z,22.98
2019-05-02T16:42:57.561Z,25.68
2019-05-02T16:45:27.484Z,22.25
2019-05-02T16:47:58.942Z,19.37
2019-05-02T16:50:34.682Z,21.37
2019-05-02T16:53:03.202Z,22.17
2019-05-02T16:55:32.901Z,22.07
2019-05-02T16:58:06.978Z,17.82
2019-05-02T17:00:36.958Z,15.63
2019-05-02T17:03:05.366Z,14.78
2019-05-02T17:05:39.225Z,14.28
2019-05-02T17:08:18.624Z,12.78
2019-05-02T17:10:53.732Z,10.93
2019-05-02T17:13:18.923Z,10.80
2019-05-02T17:15:49.128Z,7.20
2019-05-02T17:18:22.608Z,10.25
2019-05-02T17:20:54.944Z,9.30
2019-05-02T17:23:22.470Z,8.93
2019-05-02T17:25:52.479Z,6.53
2019-05-02T17:28:22.985Z,9.33
2019-05-02T17:30:52.637Z,6.72
2019-05-02T17:33:22.118Z,9.83
2019-05-02T17:35:54.061Z,9.23
2019-05-02T17:38:25.078Z,7.20
2019-05-02T17:40:58.803Z,6.78
2019-05-02T17:43:25.926Z,13.60
2019-05-02T17:45:56.530Z,14.78
2019-05-02T17:48:26.136Z,8.43
2019-05-02T17:51:01.959Z,12.75
2019-05-02T17:53:33.785Z,12.60
2019-05-02T17:56:02.452Z,12.78
2019-05-02T17:58:31.956Z,12.20
2019-05-02T18:01:03.078Z,13.22
2019-05-02T18:03:35.195Z,8.35
2019-05-02T18:06:07.523Z,12.40
2019-05-02T18:08:35.074Z,15.48
2019-05-02T18:11:04.789Z,10.63
2019-05-02T18:13:35.450Z,14.03
2019-05-02T18:16:07.645Z,9.08
2019-05-02T18:18:37.464Z,8.15
2019-05-02T18:21:07.608Z,8.85
2019-05-02T18:23:37.385Z,21.10
2019-05-02T18:26:07.626Z,7.45
2019-05-02T18:28:47.036Z,9.15
2019-05-02T18:31:08.329Z,8.98
2019-05-02T18:33:41.300Z,4.85
2019-05-02T18:36:08.961Z,6.12
2019-05-02T18:38:38.427Z,11.45
2019-05-02T18:41:08.066Z,4.90
2019-05-02T18:43:43.603Z,7.53
2019-05-02T18:46:08.651Z,6.78
2019-05-02T18:48:42.172Z,5.75
2019-05-02T18:51:09.344Z,4.80
2019-05-02T18:53:38.912Z,3.65
2019-05-02T18:56:12.473Z,7.45
2019-05-02T18:58:45.221Z,9.98
2019-05-02T19:01:17.801Z,9.93
2019-05-02T19:03:52.487Z,8.30
2019-05-02T19:06:18.639Z,4.53
2019-05-02T19:08:50.271Z,4.12
2019-05-02T19:11:22.111Z,6.30
2019-05-02T19:13:53.395Z,8.05
2019-05-02T19:16:28.521Z,3.67
2019-05-02T19:18:57.524Z,2.60
2019-05-02T19:21:32.076Z,4.97
2019-05-02T19:24:02.488Z,5.37
2019-05-02T19:26:32.637Z,2.27
2019-05-02T19:29:08.388Z,2.90
2019-05-02T19:31:41.152Z,2.47
2019-05-02T19:34:07.743Z,3.27
2019-05-02T19:36:37.183Z,7.70
2019-05-02T19:39:09.947Z,3.77
2019-05-02T19:41:44.103Z,3.40
2019-05-02T19:44:11.194Z,10.38
2019-05-02T19:46:42.218Z,7.40
2019-05-02T19:49:16.060Z,2.75
2019-05-02T19:51:42.897Z,2.67
2019-05-02T19:54:12.647Z,3.35
2019-05-02T19:56:47.479Z,3.75
2019-05-02T19:59:24.519Z,3.45
2019-05-02T20:01:49.115Z,3.92
2019-05-02T20:04:18.739Z,3.87
2019-05-02T20:06:48.175Z,3.40
2019-05-02T20:09:17.639Z,5.45
2019-05-02T20:11:47.162Z,6.65
2019-05-02T20:14:18.206Z,7.78
2019-05-02T20:16:52.764Z,5.85
2019-05-02T20:19:25.716Z,3.45
2019-05-02T20:22:02.911Z,6.87
2019-05-02T20:24:55.249Z,3.77
2019-05-02T20:27:22.914Z,10.72
2019-05-02T20:29:52.369Z,6.25
2019-05-02T20:32:22.895Z,2.55
2019-05-02T20:34:55.437Z,8.68
2019-05-02T20:37:24.961Z,4.65
2019-05-02T20:39:54.467Z,4.40
2019-05-02T20:42:32.177Z,6.90
2019-05-02T20:45:02.351Z,2.35
2019-05-02T20:47:32.148Z,6.92
2019-05-02T20:50:02.621Z,5.15
2019-05-02T20:52:32.608Z,3.62
2019-05-02T20:55:02.089Z,8.70
2019-05-02T21:00:25.953Z,3.67
2019-05-02T21:02:56.984Z,3.65
2019-05-02T21:05:38.207Z,6.30
2019-05-02T21:08:26.175Z,5.03
2019-05-02T21:11:01.815Z,4.90
2019-05-02T21:13:32.757Z,17.90
2019-05-02T21:16:02.441Z,2.98
2019-05-02T21:18:32.805Z,5.40
2019-05-02T21:21:02.476Z,3.20
2019-05-02T21:23:44.224Z,2.65
2019-05-02T21:26:03.360Z,6.87
2019-05-02T21:28:32.854Z,3.08
2019-05-02T21:31:02.909Z,4.00
2019-05-02T21:33:39.679Z,8.23
2019-05-02T21:36:09.285Z,3.52
2019-05-02T21:38:39.812Z,3.12
2019-05-02T21:41:11.157Z,1.07
2019-05-02T21:43:42.404Z,2.42
2019-05-02T21:46:11.867Z,4.17
2019-05-02T21:48:42.056Z,1.37
2019-05-02T21:51:29.524Z,3.67
2019-05-02T21:54:02.866Z,1.82
2019-05-02T21:56:39.266Z,0.90
2019-05-02T21:59:12.249Z,1.27
2019-05-02T22:01:48.838Z,1.62
2019-05-02T22:04:18.471Z,1.17
2019-05-02T22:06:48.019Z,1.20
2019-05-02T22:09:19.608Z,1.40
2019-05-02T22:11:49.174Z,1.30
2019-05-02T22:14:18.716Z,1.85
2019-05-02T22:16:48.265Z,5.67
2019-05-02T22:19:17.841Z,4.42
2019-05-02T22:21:47.408Z,1.32
2019-05-02T22:24:16.947Z,0.42
2019-05-02T22:26:46.533Z,1.60
2019-05-02T22:29:16.003Z,1.62
2019-05-02T22:31:57.309Z,1.27
2019-05-02T22:34:39.420Z,1.45
2019-05-02T22:37:12.196Z,1.42
2019-05-02T22:39:43.289Z,1.10
2019-05-02T22:42:13.000Z,0.80
2019-05-02T22:44:42.560Z,0.93
2019-05-02T22:47:14.412Z,0.45
2019-05-02T22:49:43.894Z,0.85
2019-05-02T22:52:14.410Z,2.05
2019-05-02T22:54:44.027Z,1.17
2019-05-02T22:57:14.230Z,2.30
2019-05-02T22:59:43.955Z,4.25
2019-05-02T23:02:14.540Z,3.60
2019-05-02T23:04:44.300Z,5.17
2019-05-02T23:07:13.770Z,7.47
2019-05-02T23:09:43.700Z,1.32
2019-05-02T23:12:13.336Z,1.42
2019-05-02T23:14:42.779Z,1.82
2019-05-02T23:17:12.689Z,2.00
2019-05-02T23:19:42.569Z,4.53
2019-05-02T23:22:12.662Z,1.62
2019-05-02T23:24:44.032Z,1.75
2019-05-02T23:27:16.236Z,3.12
2019-05-02T23:29:45.715Z,4.97
2019-05-02T23:32:15.193Z,2.22
2019-05-02T23:34:44.671Z,2.02
2019-05-02T23:37:14.329Z,3.17
2019-05-02T23:40:03.145Z,4.50
2019-05-02T23:42:32.675Z,3.30
2019-05-02T23:45:02.798Z,7.25
2019-05-02T23:47:33.051Z,8.75
2019-05-02T23:50:14.999Z,4.10
2019-05-02T23:52:44.484Z,7.00
2019-05-02T23:55:14.212Z,3.08
2019-05-02T23:57:43.701Z,5.40
